createdAt,value
2023-05-14T00:00:27.093Z,98979.14
2023-05-14T00:02:54.614Z,98980.24
2023-05-14T00:05:21.605Z,98975.85
2023-05-14T00:07:48.543Z,98974.20
2023-05-14T00:10:15.374Z,98971.65
2023-05-14T00:12:42.462Z,98967.36
2023-05-14T00:15:09.981Z,98962.40
2023-05-14T00:17:37.923Z,98965.91
2023-05-14T00:20:07.465Z,98968.30
2023-05-14T00:22:35.251Z,98972.11
2023-05-14T00:25:02.790Z,98969.75
2023-05-14T00:27:30.448Z,98964.16
2023-05-14T00:29:57.716Z,98962.44
2023-05-14T00:32:25.465Z,98965.48
2023-05-14T00:34:52.397Z,98966.77
2023-05-14T00:37:19.870Z,98965.34
2023-05-14T00:39:47.089Z,98961.98
2023-05-14T00:42:14.158Z,98963.48
2023-05-14T00:44:41.194Z,98967.41
2023-05-14T00:47:08.977Z,98970.34
2023-05-14T00:49:36.638Z,98973.42
2023-05-14T00:52:04.261Z,98969.07
2023-05-14T00:54:31.516Z,98975.66
2023-05-14T00:56:59.860Z,98971.27
2023-05-14T00:59:26.836Z,98975.38
2023-05-14T01:01:53.873Z,98976.88
2023-05-14T01:04:21.225Z,98977.70
2023-05-14T01:07:07.758Z,98976.75
2023-05-14T01:09:44.807Z,98979.73
2023-05-14T01:12:19.632Z,98978.24
2023-05-14T01:14:57.261Z,98978.30
2023-05-14T01:17:28.920Z,98975.31
2023-05-14T01:19:57.093Z,98975.91
2023-05-14T01:22:24.248Z,98973.05
2023-05-14T01:24:51.248Z,98970.75
2023-05-14T01:27:46.457Z,98970.59
2023-05-14T01:30:19.728Z,98966.55
2023-05-14T01:32:53.876Z,98967.28
2023-05-14T01:35:25.694Z,98970.05
2023-05-14T01:37:55.932Z,98971.55
2023-05-14T01:40:24.408Z,98969.91
2023-05-14T01:42:53.264Z,98967.68
2023-05-14T01:45:24.729Z,98969.37
2023-05-14T01:47:52.178Z,98963.93
2023-05-14T01:50:19.346Z,98962.66
2023-05-14T01:52:47.228Z,98966.59
2023-05-14T01:55:14.689Z,98966.04
2023-05-14T01:57:41.808Z,98963.20
2023-05-14T02:00:09.673Z,98962.23
2023-05-14T02:02:36.691Z,98962.38
2023-05-14T02:05:05.560Z,98958.98
2023-05-14T02:07:33.887Z,98961.15
2023-05-14T02:10:00.972Z,98959.27
2023-05-14T02:12:27.867Z,98960.36
2023-05-14T02:14:54.849Z,98953.20
2023-05-14T02:17:21.869Z,98951.16
2023-05-14T02:19:48.802Z,98944.52
2023-05-14T02:22:15.777Z,98943.80
2023-05-14T02:24:43.334Z,98939.73
2023-05-14T02:27:10.251Z,98936.89
2023-05-14T02:29:37.090Z,98932.58
2023-05-14T02:32:04.408Z,98931.41
2023-05-14T02:34:31.390Z,98931.29
2023-05-14T02:36:58.249Z,98928.16
2023-05-14T02:39:25.254Z,98923.33
2023-05-14T02:41:52.132Z,98922.71
2023-05-14T02:44:19.064Z,98915.34
2023-05-14T02:46:46.464Z,98912.51
2023-05-14T02:49:13.707Z,98908.63
2023-05-14T02:51:40.604Z,98905.23
2023-05-14T02:54:07.682Z,98902.30
2023-05-14T02:56:34.690Z,98899.36
2023-05-14T02:59:01.529Z,98900.54
2023-05-14T03:01:29.124Z,98901.29
2023-05-14T03:03:56.591Z,98903.34
2023-05-14T03:06:23.614Z,98907.30
2023-05-14T03:08:50.852Z,98912.17
2023-05-14T03:11:17.884Z,98911.64
2023-05-14T03:13:44.733Z,98909.90
2023-05-14T03:16:11.708Z,98910.24
2023-05-14T03:18:38.569Z,98907.92
2023-05-14T03:21:06.295Z,98909.16
2023-05-14T03:23:35.381Z,98909.10
2023-05-14T03:26:02.656Z,98905.48
2023-05-14T03:28:29.576Z,98903.31
2023-05-14T03:30:56.746Z,98902.91
2023-05-14T03:33:24.170Z,98903.30
2023-05-14T03:35:52.128Z,98903.35
2023-05-14T03:38:18.981Z,98906.57
2023-05-14T03:40:46.455Z,98906.38
2023-05-14T03:43:13.384Z,98904.60
2023-05-14T03:45:40.415Z,98900.30
2023-05-14T03:48:07.694Z,98894.80
2023-05-14T03:50:34.737Z,98892.08
2023-05-14T03:53:01.748Z,98896.30
2023-05-14T03:55:28.626Z,98892.02
2023-05-14T03:57:55.558Z,98890.32
2023-05-14T04:00:22.896Z,98894.57
2023-05-14T04:02:50.112Z,98893.59
2023-05-14T04:05:17.613Z,98893.22
2023-05-14T04:07:46.182Z,98893.72
2023-05-14T04:10:14.568Z,98893.29
2023-05-14T04:12:41.392Z,98895.83
2023-05-14T04:15:09.171Z,98895.52
2023-05-14T04:17:36.143Z,98901.02
2023-05-14T04:20:03.487Z,98897.17
2023-05-14T04:22:30.400Z,98899.89
2023-05-14T04:24:57.253Z,98899.30
2023-05-14T04:27:24.177Z,98902.25
2023-05-14T04:29:51.431Z,98908.55
2023-05-14T04:32:18.671Z,98915.92
2023-05-14T04:34:47.278Z,98909.88
2023-05-14T04:37:14.267Z,98910.21
2023-05-14T04:39:41.132Z,98907.79
2023-05-14T04:42:08.585Z,98907.34
2023-05-14T04:44:36.916Z,98908.95
2023-05-14T04:47:04.846Z,98905.88
2023-05-14T04:49:32.200Z,98905.98
2023-05-14T04:51:59.558Z,98904.95
2023-05-14T04:54:26.799Z,98907.98
2023-05-14T04:56:55.464Z,98908.95
2023-05-14T04:59:22.815Z,98909.47
2023-05-14T05:01:49.675Z,98911.05
2023-05-14T05:04:16.637Z,98909.45
2023-05-14T05:06:43.765Z,98906.77
2023-05-14T05:09:10.802Z,98903.89
2023-05-14T05:11:39.291Z,98902.67
2023-05-14T05:14:06.126Z,98900.45
2023-05-14T05:16:33.321Z,98904.25
2023-05-14T05:19:00.257Z,98900.63
2023-05-14T05:21:27.261Z,98899.05
2023-05-14T05:23:54.229Z,98900.20
2023-05-14T05:26:22.585Z,98902.02
2023-05-14T05:28:49.430Z,98901.38
2023-05-14T05:31:19.056Z,98902.28
2023-05-14T05:33:46.999Z,98901.05
2023-05-14T05:36:13.864Z,98907.25
2023-05-14T05:38:40.776Z,98907.31
2023-05-14T05:41:08.254Z,98909.10
2023-05-14T05:43:35.373Z,98907.91
2023-05-14T05:46:02.503Z,98910.56
2023-05-14T05:48:29.463Z,98905.73
2023-05-14T05:50:56.300Z,98902.54
2023-05-14T05:53:23.351Z,98895.75
2023-05-14T05:55:51.849Z,98892.39
2023-05-14T05:58:20.035Z,98889.20
2023-05-14T06:00:47.691Z,98887.27
2023-05-14T06:03:15.280Z,98889.86
2023-05-14T06:05:42.225Z,98890.27
2023-05-14T06:08:10.122Z,98884.56
2023-05-14T06:10:37.895Z,98879.03
2023-05-14T06:13:04.924Z,98879.71
2023-05-14T06:15:31.875Z,98877.34
2023-05-14T06:17:58.891Z,98879.08
2023-05-14T06:20:26.143Z,98873.13
2023-05-14T06:22:53.216Z,98870.10
2023-05-14T06:25:20.073Z,98866.69
2023-05-14T06:27:47.018Z,98868.08
2023-05-14T06:30:14.579Z,98870.45
2023-05-14T06:32:41.570Z,98870.93
2023-05-14T06:35:09.178Z,98875.83
2023-05-14T06:37:36.105Z,98876.36
2023-05-14T06:40:03.970Z,98879.00
2023-05-14T06:42:30.817Z,98882.23
2023-05-14T06:44:57.654Z,98872.59
2023-05-14T06:47:25.014Z,98874.48
2023-05-14T06:49:51.969Z,98870.89
2023-05-14T06:52:18.884Z,98872.99
2023-05-14T06:55:00.436Z,98874.63
2023-05-14T06:57:34.219Z,98865.20
2023-05-14T07:00:03.299Z,98867.90
2023-05-14T07:02:31.160Z,98870.56
2023-05-14T07:04:58.096Z,98873.92
2023-05-14T07:07:25.119Z,98873.05
2023-05-14T07:09:52.070Z,98873.98
2023-05-14T07:12:18.914Z,98870.85
2023-05-14T07:14:46.051Z,98874.41
2023-05-14T07:17:12.946Z,98875.50
2023-05-14T07:19:40.049Z,98878.04
2023-05-14T07:22:06.886Z,98877.48
2023-05-14T07:24:33.862Z,98878.55
2023-05-14T07:27:02.097Z,98879.01
2023-05-14T07:29:30.696Z,98886.88
2023-05-14T07:31:57.820Z,98882.14
2023-05-14T07:34:24.691Z,98877.30
2023-05-14T07:36:51.599Z,98859.02
2023-05-14T07:39:18.441Z,98856.63
2023-05-14T07:41:45.296Z,98858.02
2023-05-14T07:44:12.329Z,98858.15
2023-05-14T07:46:39.064Z,98845.73
2023-05-14T07:49:05.903Z,98841.49
2023-05-14T07:51:33.687Z,98842.21
2023-05-14T07:54:01.294Z,98838.02
2023-05-14T07:56:32.813Z,98832.20
2023-05-14T07:59:00.108Z,98831.02
2023-05-14T08:01:27.492Z,98829.86
2023-05-14T08:03:54.666Z,98823.98
2023-05-14T08:06:23.292Z,98821.05
2023-05-14T08:08:50.166Z,98815.38
2023-05-14T08:11:17.151Z,98808.86
2023-05-14T08:13:44.138Z,98805.20
2023-05-14T08:16:10.984Z,98802.06
2023-05-14T08:18:38.272Z,98798.18
2023-05-14T08:21:05.852Z,98791.11
2023-05-14T08:23:32.838Z,98793.98
2023-05-14T08:26:00.332Z,98795.45
2023-05-14T08:28:27.373Z,98796.93
2023-05-14T08:30:54.745Z,98792.31
2023-05-14T08:33:22.110Z,98786.14
2023-05-14T08:35:54.101Z,98781.36
2023-05-14T08:38:21.295Z,98775.16
2023-05-14T08:41:01.119Z,98773.95
2023-05-14T08:43:36.095Z,98766.50
2023-05-14T08:46:06.668Z,98766.96
2023-05-14T08:48:34.850Z,98765.27
2023-05-14T08:51:02.806Z,98768.66
2023-05-14T08:53:31.769Z,98768.55
2023-05-14T08:56:01.148Z,98760.73
2023-05-14T08:58:29.100Z,98755.19
2023-05-14T09:00:57.054Z,98750.96
2023-05-14T09:03:24.686Z,98748.30
2023-05-14T09:05:52.741Z,98745.72
2023-05-14T09:08:20.202Z,98749.42
2023-05-14T09:10:47.210Z,98756.05
2023-05-14T09:13:14.969Z,98757.24
2023-05-14T09:15:42.158Z,98757.33
2023-05-14T09:18:10.439Z,98759.20
2023-05-14T09:20:39.732Z,98763.02
2023-05-14T09:23:06.569Z,98761.52
2023-05-14T09:25:33.926Z,98764.86
2023-05-14T09:28:07.457Z,98770.54
2023-05-14T09:30:35.327Z,98761.10
2023-05-14T09:33:04.457Z,98761.33
2023-05-14T09:35:32.847Z,98759.89
2023-05-14T09:37:59.939Z,98751.27
2023-05-14T09:40:27.961Z,98747.67
2023-05-14T09:42:55.781Z,98746.14
2023-05-14T09:45:22.682Z,98747.36
2023-05-14T09:47:50.185Z,98741.56
2023-05-14T09:50:17.495Z,98740.21
2023-05-14T09:52:44.490Z,98741.38
2023-05-14T09:55:11.610Z,98738.55
2023-05-14T09:57:38.719Z,98728.27
2023-05-14T10:00:07.101Z,98728.58
2023-05-14T10:02:38.685Z,98720.79
2023-05-14T10:05:07.557Z,98717.50
2023-05-14T10:07:41.953Z,98711.05
2023-05-14T10:10:13.813Z,98708.45
2023-05-14T10:12:41.539Z,98708.04
2023-05-14T10:15:18.322Z,98705.79
2023-05-14T10:17:50.566Z,98705.25
2023-05-14T10:20:18.797Z,98698.32
2023-05-14T10:22:46.491Z,98694.18
2023-05-14T10:25:14.308Z,98689.45
2023-05-14T10:27:42.656Z,98687.29
2023-05-14T10:30:13.268Z,98684.16
2023-05-14T10:32:42.193Z,98684.98
2023-05-14T10:35:21.058Z,98678.15
2023-05-14T10:37:51.560Z,98683.30
2023-05-14T10:40:19.664Z,98680.33
2023-05-14T10:42:47.179Z,98686.36
2023-05-14T10:45:15.955Z,98683.61
2023-05-14T10:47:46.157Z,98680.70
2023-05-14T10:50:15.582Z,98683.17
2023-05-14T10:52:46.524Z,98679.54
2023-05-14T10:55:15.520Z,98679.40
2023-05-14T10:57:44.488Z,98677.64
2023-05-14T11:00:13.048Z,98683.70
2023-05-14T11:02:42.236Z,98676.90
2023-05-14T11:05:19.674Z,98677.46
2023-05-14T11:07:49.024Z,98671.83
2023-05-14T11:10:18.950Z,98671.11
2023-05-14T11:12:51.239Z,98671.92
2023-05-14T11:15:23.723Z,98672.23
2023-05-14T11:17:51.994Z,98672.13
2023-05-14T11:20:20.334Z,98664.10
2023-05-14T11:22:48.921Z,98665.59
2023-05-14T11:25:16.612Z,98663.16
2023-05-14T11:27:45.615Z,98664.45
2023-05-14T11:30:20.280Z,98662.56
2023-05-14T11:32:49.692Z,98653.53
2023-05-14T11:35:17.933Z,98654.39
2023-05-14T11:37:52.565Z,98658.10
2023-05-14T11:40:20.420Z,98651.80
2023-05-14T11:42:47.644Z,98650.78
2023-05-14T11:45:24.585Z,98644.08
2023-05-14T11:47:54.130Z,98638.29
2023-05-14T11:50:22.646Z,98632.74
2023-05-14T11:52:51.193Z,98624.01
2023-05-14T11:55:18.825Z,98620.46
2023-05-14T11:57:46.257Z,98614.98
2023-05-14T12:00:17.303Z,98617.64
2023-05-14T12:02:44.424Z,98613.63
2023-05-14T12:05:13.608Z,98607.19
2023-05-14T12:07:42.108Z,98606.31
2023-05-14T12:10:12.094Z,98605.49
2023-05-14T12:12:39.137Z,98602.91
2023-05-14T12:15:13.776Z,98598.77
2023-05-14T12:17:41.587Z,98593.45
2023-05-14T12:20:13.227Z,98592.98
2023-05-14T12:22:42.808Z,98588.56
2023-05-14T12:25:14.581Z,98587.42
2023-05-14T12:27:44.985Z,98586.55
2023-05-14T12:32:47.883Z,98579.02
2023-05-14T12:35:14.877Z,98572.06
2023-05-14T12:37:43.030Z,98571.19
2023-05-14T12:40:10.429Z,98571.38
2023-05-14T12:42:38.031Z,98570.88
2023-05-14T12:45:08.215Z,98566.13
2023-05-14T12:47:36.644Z,98563.53
2023-05-14T12:50:04.340Z,98556.96
2023-05-14T12:55:02.008Z,98553.14
2023-05-14T12:57:30.441Z,98551.37
2023-05-14T12:59:58.140Z,98553.52
2023-05-14T13:02:25.071Z,98550.21
2023-05-14T13:04:52.053Z,98549.64
2023-05-14T13:07:18.953Z,98549.36
2023-05-14T13:09:45.899Z,98541.36
2023-05-14T13:12:13.075Z,98536.67
2023-05-14T13:14:40.007Z,98535.62
2023-05-14T13:17:08.387Z,98538.54
2023-05-14T13:19:35.652Z,98530.77
2023-05-14T13:22:02.613Z,98518.59
2023-05-14T13:24:29.527Z,98518.61
2023-05-14T13:26:56.805Z,98515.30
2023-05-14T13:29:24.759Z,98512.73
2023-05-14T13:31:52.066Z,98509.11
2023-05-14T13:34:19.285Z,98509.04
2023-05-14T13:36:47.594Z,98504.54
2023-05-14T13:39:14.811Z,98502.84
2023-05-14T13:41:42.295Z,98494.08
2023-05-14T13:44:09.492Z,98484.61
2023-05-14T13:46:36.471Z,98476.75
2023-05-14T13:49:03.442Z,98471.85
2023-05-14T13:51:31.607Z,98466.23
2023-05-14T13:53:59.137Z,98477.80
2023-05-14T13:56:26.519Z,98485.65
2023-05-14T13:59:03.158Z,98481.53
2023-05-14T14:01:36.695Z,98472.81
2023-05-14T14:04:03.729Z,98466.45
2023-05-14T14:06:34.878Z,98459.18
2023-05-14T14:09:02.273Z,98452.09
2023-05-14T14:11:29.273Z,98450.29
2023-05-14T14:13:56.248Z,98447.30
2023-05-14T14:16:23.257Z,98449.51
2023-05-14T14:18:50.768Z,98441.48
2023-05-14T14:21:24.916Z,98435.77
2023-05-14T14:23:52.120Z,98438.95
2023-05-14T14:26:19.257Z,98440.38
2023-05-14T14:28:46.269Z,98436.67
2023-05-14T14:31:13.529Z,98432.80
2023-05-14T14:33:40.684Z,98424.63
2023-05-14T14:36:08.190Z,98423.54
2023-05-14T14:38:35.375Z,98420.16
2023-05-14T14:41:03.474Z,98416.21
2023-05-14T14:43:30.509Z,98409.14
2023-05-14T14:45:58.394Z,98402.48
2023-05-14T14:48:37.843Z,98393.50
2023-05-14T14:51:06.794Z,98387.98
2023-05-14T14:53:35.176Z,98383.70
2023-05-14T14:56:03.357Z,98378.96
2023-05-14T14:58:31.662Z,98372.02
2023-05-14T15:00:59.331Z,98368.33
2023-05-14T15:03:27.298Z,98368.00
2023-05-14T15:05:54.589Z,98363.58
2023-05-14T15:08:27.760Z,98365.98
2023-05-14T15:10:56.338Z,98369.17
2023-05-14T15:13:23.680Z,98363.45
2023-05-14T15:15:52.939Z,98361.13
2023-05-14T15:18:20.252Z,98361.83
2023-05-14T15:20:47.722Z,98357.12
2023-05-14T15:23:14.853Z,98357.04
2023-05-14T15:25:41.926Z,98347.87
2023-05-14T15:28:09.128Z,98345.56
2023-05-14T15:30:36.237Z,98342.75
2023-05-14T15:33:03.295Z,98339.08
2023-05-14T15:35:30.626Z,98339.19
2023-05-14T15:37:57.658Z,98343.35
2023-05-14T15:40:25.106Z,98340.31
2023-05-14T15:42:52.378Z,98335.14
2023-05-14T15:45:19.424Z,98333.04
2023-05-14T15:47:46.288Z,98324.25
2023-05-14T15:50:13.661Z,98319.27
2023-05-14T15:52:41.858Z,98315.27
2023-05-14T15:55:09.549Z,98315.65
2023-05-14T15:57:36.879Z,98315.85
2023-05-14T16:00:11.419Z,98315.83
2023-05-14T16:02:39.938Z,98318.18
2023-05-14T16:05:08.723Z,98320.17
2023-05-14T16:07:36.429Z,98318.52
2023-05-14T16:10:04.065Z,98318.64
2023-05-14T16:12:31.601Z,98318.48
2023-05-14T16:14:59.343Z,98318.45
2023-05-14T16:17:30.810Z,98317.98
2023-05-14T16:19:57.891Z,98318.46
2023-05-14T16:22:24.860Z,98315.11
2023-05-14T16:24:51.819Z,98319.00
2023-05-14T16:27:19.514Z,98314.48
2023-05-14T16:29:46.577Z,98314.88
2023-05-14T16:32:13.842Z,98311.63
2023-05-14T16:34:41.490Z,98314.23
2023-05-14T16:37:09.285Z,98312.74
2023-05-14T16:39:37.945Z,98311.01
2023-05-14T16:42:05.797Z,98315.25
2023-05-14T16:44:32.898Z,98309.71
2023-05-14T16:46:59.837Z,98305.63
2023-05-14T16:49:26.692Z,98303.65
2023-05-14T16:51:53.567Z,98301.08
2023-05-14T16:54:20.511Z,98299.16
2023-05-14T16:56:48.500Z,98293.83
2023-05-14T16:59:16.327Z,98286.25
2023-05-14T17:01:44.770Z,98279.98
2023-05-14T17:04:11.827Z,98285.95
2023-05-14T17:06:38.900Z,98279.58
2023-05-14T17:09:07.195Z,98274.12
2023-05-14T17:11:34.084Z,98280.42
2023-05-14T17:14:00.957Z,98295.11
2023-05-14T17:16:28.510Z,98299.83
2023-05-14T17:18:55.807Z,98316.72
2023-05-14T17:21:23.491Z,98327.52
2023-05-14T17:23:50.873Z,98328.71
2023-05-14T17:26:17.929Z,98329.54
2023-05-14T17:28:45.016Z,98330.19
2023-05-14T17:31:12.022Z,98328.16
2023-05-14T17:33:39.452Z,98322.79
2023-05-14T17:36:07.243Z,98326.57
2023-05-14T17:38:35.242Z,98330.52
2023-05-14T17:41:02.270Z,98329.98
2023-05-14T17:43:29.405Z,98337.65
2023-05-14T17:45:56.407Z,98340.58
2023-05-14T17:48:24.414Z,98344.32
2023-05-14T17:50:52.856Z,98343.33
2023-05-14T17:53:19.747Z,98338.66
2023-05-14T17:55:46.870Z,98335.05
2023-05-14T17:58:16.364Z,98339.69
2023-05-14T18:00:44.530Z,98338.63
2023-05-14T18:03:11.962Z,98331.31
2023-05-14T18:05:39.258Z,98327.51
2023-05-14T18:08:06.485Z,98322.65
2023-05-14T18:10:33.869Z,98322.95
2023-05-14T18:13:01.739Z,98322.36
2023-05-14T18:15:31.874Z,98320.58
2023-05-14T18:17:58.958Z,98314.13
2023-05-14T18:20:26.272Z,98312.70
2023-05-14T18:22:53.268Z,98314.40
2023-05-14T18:25:20.324Z,98313.15
2023-05-14T18:27:47.506Z,98314.77
2023-05-14T18:30:16.055Z,98315.63
2023-05-14T18:32:45.169Z,98317.10
2023-05-14T18:35:13.546Z,98320.57
2023-05-14T18:37:41.310Z,98326.92
2023-05-14T18:40:09.269Z,98326.33
2023-05-14T18:42:36.780Z,98327.80
2023-05-14T18:45:04.964Z,98330.89
2023-05-14T18:47:33.596Z,98333.81
2023-05-14T18:50:02.251Z,98336.83
2023-05-14T18:52:29.982Z,98331.79
2023-05-14T18:54:57.172Z,98337.83
2023-05-14T18:57:24.430Z,98334.33
2023-05-14T18:59:51.516Z,98331.63
2023-05-14T19:02:19.075Z,98332.48
2023-05-14T19:07:15.990Z,98336.95
2023-05-14T19:09:43.126Z,98342.70
2023-05-14T19:12:10.091Z,98347.07
2023-05-14T19:14:37.261Z,98345.88
2023-05-14T19:17:05.288Z,98349.55
2023-05-14T19:19:32.302Z,98350.84
2023-05-14T19:21:59.342Z,98352.26
2023-05-14T19:24:26.431Z,98351.49
2023-05-14T19:26:53.834Z,98348.35
2023-05-14T19:29:20.789Z,98356.30
2023-05-14T19:31:47.976Z,98359.54
2023-05-14T19:34:15.436Z,98359.28
2023-05-14T19:36:42.733Z,98362.81
2023-05-14T19:39:10.382Z,98362.72
2023-05-14T19:41:37.379Z,98365.77
2023-05-14T19:44:04.545Z,98361.92
2023-05-14T19:46:32.036Z,98358.06
2023-05-14T19:48:59.440Z,98351.04
2023-05-14T19:51:26.380Z,98349.61
2023-05-14T19:53:53.577Z,98347.47
2023-05-14T19:56:22.139Z,98343.70
2023-05-14T19:58:49.148Z,98339.91
2023-05-14T20:01:16.136Z,98338.67
2023-05-14T20:03:43.798Z,98334.92
2023-05-14T20:06:11.336Z,98328.52
2023-05-14T20:08:38.723Z,98317.90
2023-05-14T20:11:06.862Z,98304.20
2023-05-14T20:13:36.274Z,98299.42
2023-05-14T20:16:04.053Z,98287.41
2023-05-14T20:18:32.029Z,98284.52
2023-05-14T20:20:59.017Z,98276.13
2023-05-14T20:23:26.214Z,98266.32
2023-05-14T20:25:53.656Z,98260.56
2023-05-14T20:28:21.281Z,98252.84
2023-05-14T20:30:48.178Z,98244.23
2023-05-14T20:33:15.375Z,98233.23
2023-05-14T20:35:44.188Z,98231.45
2023-05-14T20:38:13.046Z,98226.80
2023-05-14T20:40:41.338Z,98223.23
2023-05-14T20:43:08.268Z,98215.79
2023-05-14T20:45:36.201Z,98209.48
2023-05-14T20:48:06.483Z,98197.50
2023-05-14T20:50:33.802Z,98193.52
2023-05-14T20:53:01.451Z,98184.65
2023-05-14T20:55:28.407Z,98180.42
2023-05-14T20:57:55.344Z,98176.59
2023-05-14T21:00:22.291Z,98167.87
2023-05-14T21:02:49.941Z,98159.77
2023-05-14T21:05:17.702Z,98152.86
2023-05-14T21:07:44.642Z,98148.83
2023-05-14T21:10:11.809Z,98140.45
2023-05-14T21:12:38.837Z,98136.89
2023-05-14T21:15:06.288Z,98138.23
2023-05-14T21:17:33.540Z,98136.80
2023-05-14T21:20:01.223Z,98137.92
2023-05-14T21:22:28.251Z,98131.23
2023-05-14T21:24:55.915Z,98128.09
2023-05-14T21:27:22.866Z,98124.02
2023-05-14T21:29:50.456Z,98119.02
2023-05-14T21:32:17.509Z,98119.36
2023-05-14T21:34:44.914Z,98121.39
2023-05-14T21:37:11.978Z,98114.88
2023-05-14T21:39:38.942Z,98102.48
2023-05-14T21:42:06.662Z,98100.58
2023-05-14T21:44:33.662Z,98091.84
2023-05-14T21:47:01.104Z,98085.91
2023-05-14T21:49:28.375Z,98084.64
2023-05-14T21:51:55.495Z,98082.10
2023-05-14T21:54:22.638Z,98082.04
2023-05-14T21:56:49.983Z,98082.85
2023-05-14T21:59:16.796Z,98080.30
2023-05-14T22:04:14.151Z,98072.36
2023-05-14T22:06:41.978Z,98075.41
2023-05-14T22:09:11.575Z,98077.42
2023-05-14T22:11:38.634Z,98070.14
2023-05-14T22:14:05.653Z,98067.73
2023-05-14T22:16:33.772Z,98067.77
2023-05-14T22:19:00.815Z,98065.23
2023-05-14T22:21:28.081Z,98060.83
2023-05-14T22:23:55.004Z,98056.95
2023-05-14T22:26:22.154Z,98056.46
2023-05-14T22:28:49.911Z,98058.71
2023-05-14T22:31:17.289Z,98063.73
2023-05-14T22:33:44.302Z,98063.23
2023-05-14T22:36:11.742Z,98067.74
2023-05-14T22:38:41.486Z,98060.50
2023-05-14T22:41:08.453Z,98050.23
2023-05-14T22:43:35.394Z,98043.09
2023-05-14T22:46:02.478Z,98030.55
2023-05-14T22:48:29.678Z,98013.10
2023-05-14T22:50:56.702Z,98008.21
2023-05-14T22:53:25.082Z,98008.27
2023-05-14T22:55:52.398Z,98008.18
2023-05-14T22:58:19.276Z,98012.05
2023-05-14T23:00:46.243Z,98012.73
2023-05-14T23:03:13.022Z,98003.02
2023-05-14T23:05:39.834Z,97994.23
2023-05-14T23:08:07.116Z,97984.60
2023-05-14T23:10:35.807Z,97981.50
2023-05-14T23:13:02.744Z,97977.63
2023-05-14T23:15:29.948Z,97975.83
2023-05-14T23:17:56.938Z,97976.68
2023-05-14T23:20:23.854Z,97979.05
2023-05-14T23:22:50.891Z,97977.82
2023-05-14T23:25:17.687Z,97970.77
2023-05-14T23:27:44.511Z,97968.04
2023-05-14T23:30:12.361Z,97965.56
2023-05-14T23:32:39.203Z,97969.85
2023-05-14T23:35:11.261Z,97962.79
2023-05-14T23:37:50.861Z,97958.42
2023-05-14T23:40:25.121Z,97946.36
2023-05-14T23:42:59.358Z,97940.52
2023-05-14T23:45:31.958Z,97930.42
2023-05-14T23:48:03.517Z,97923.76
2023-05-14T23:50:41.886Z,97913.52
2023-05-14T23:55:51.778Z,97917.69
2023-05-14T23:58:18.620Z,97914.65
